sensor_id;sensor_type;location;lat;lon;timestamp;temperature;humidity
2202;DHT22;1107;48.654;9.250;2023-02-01T00:00:27;3.30;12.30
2202;DHT22;1107;48.654;9.250;2023-02-01T00:02:55;3.30;20.10
2202;DHT22;1107;48.654;9.250;2023-02-01T00:05:22;3.20;32.90
2202;DHT22;1107;48.654;9.250;2023-02-01T00:07:49;3.20;42.80
2202;DHT22;1107;48.654;9.250;2023-02-01T00:10:16;3.20;51.60
2202;DHT22;1107;48.654;9.250;2023-02-01T00:12:44;3.20;55.40
2202;DHT22;1107;48.654;9.250;2023-02-01T00:15:11;3.10;65.30
2202;DHT22;1107;48.654;9.250;2023-02-01T00:17:37;3.10;92.30
2202;DHT22;1107;48.654;9.250;2023-02-01T00:20:07;3.30;99.90
2202;DHT22;1107;48.654;9.250;2023-02-01T00:22:34;3.10;95.50
2202;DHT22;1107;48.654;9.250;2023-02-01T00:25:01;3.10;99.90
2202;DHT22;1107;48.654;9.250;2023-02-01T00:27:29;3.20;99.90
2202;DHT22;1107;48.654;9.250;2023-02-01T00:29:56;3.10;99.90
2202;DHT22;1107;48.654;9.250;2023-02-01T00:32:22;3.10;98.70
2202;DHT22;1107;48.654;9.250;2023-02-01T00:34:49;3.10;95.70
2202;DHT22;1107;48.654;9.250;2023-02-01T00:37:18;3.10;76.30
2202;DHT22;1107;48.654;9.250;2023-02-01T00:39:45;3.10;75.30
2202;DHT22;1107;48.654;9.250;2023-02-01T00:42:11;3.10;68.90
2202;DHT22;1107;48.654;9.250;2023-02-01T00:44:38;3.10;71.40
2202;DHT22;1107;48.654;9.250;2023-02-01T00:47:05;3.10;72.70
2202;DHT22;1107;48.654;9.250;2023-02-01T00:49:32;3.10;75.20
2202;DHT22;1107;48.654;9.250;2023-02-01T00:51:59;3.20;51.70
2202;DHT22;1107;48.654;9.250;2023-02-01T00:54:27;3.20;54.10
2202;DHT22;1107;48.654;9.250;2023-02-01T00:56:54;3.20;49.90
2202;DHT22;1107;48.654;9.250;2023-02-01T00:59:21;3.20;49.20
2202;DHT22;1107;48.654;9.250;2023-02-01T01:01:48;3.20;41.90
2202;DHT22;1107;48.654;9.250;2023-02-01T01:04:15;3.20;40.20
2202;DHT22;1107;48.654;9.250;2023-02-01T01:06:42;3.20;44.30
2202;DHT22;1107;48.654;9.250;2023-02-01T01:09:09;3.20;42.60
2202;DHT22;1107;48.654;9.250;2023-02-01T01:11:38;3.20;50.00
2202;DHT22;1107;48.654;9.250;2023-02-01T01:14:06;3.20;46.00
2202;DHT22;1107;48.654;9.250;2023-02-01T01:16:34;3.10;30.70
2202;DHT22;1107;48.654;9.250;2023-02-01T01:19:01;3.20;29.90
2202;DHT22;1107;48.654;9.250;2023-02-01T01:21:29;3.20;37.10
2202;DHT22;1107;48.654;9.250;2023-02-01T01:23:56;3.20;36.70
2202;DHT22;1107;48.654;9.250;2023-02-01T01:26:25;3.20;25.80
2202;DHT22;1107;48.654;9.250;2023-02-01T01:28:54;3.20;23.60
2202;DHT22;1107;48.654;9.250;2023-02-01T01:31:22;3.20;28.80
2202;DHT22;1107;48.654;9.250;2023-02-01T01:33:50;3.20;24.50
2202;DHT22;1107;48.654;9.250;2023-02-01T01:36:18;3.20;21.20
2202;DHT22;1107;48.654;9.250;2023-02-01T01:38:45;3.30;14.60
2202;DHT22;1107;48.654;9.250;2023-02-01T01:41:14;3.30;15.00
2202;DHT22;1107;48.654;9.250;2023-02-01T01:43:48;3.30;11.90
2202;DHT22;1107;48.654;9.250;2023-02-01T01:46:18;3.30;12.00
2202;DHT22;1107;48.654;9.250;2023-02-01T01:48:47;3.30;3.90
2202;DHT22;1107;48.654;9.250;2023-02-01T01:51:17;3.30;4.50
2202;DHT22;1107;48.654;9.250;2023-02-01T01:53:51;3.30;1.00
2202;DHT22;1107;48.654;9.250;2023-02-01T01:56:20;3.40;1.00
2202;DHT22;1107;48.654;9.250;2023-02-01T01:58:47;3.40;1.00
2202;DHT22;1107;48.654;9.250;2023-02-01T02:01:14;3.40;1.00
2202;DHT22;1107;48.654;9.250;2023-02-01T02:03:44;3.40;1.00
2202;DHT22;1107;48.654;9.250;2023-02-01T02:06:21;3.40;1.00
2202;DHT22;1107;48.654;9.250;2023-02-01T02:08:49;3.40;1.00
2202;DHT22;1107;48.654;9.250;2023-02-01T02:11:17;3.40;1.00
2202;DHT22;1107;48.654;9.250;2023-02-01T02:13:47;3.40;1.00
2202;DHT22;1107;48.654;9.250;2023-02-01T02:16:46;3.40;1.00
2202;DHT22;1107;48.654;9.250;2023-02-01T02:19:38;3.40;1.00
2202;DHT22;1107;48.654;9.250;2023-02-01T02:25:46;3.40;1.00
2202;DHT22;1107;48.654;9.250;2023-02-01T02:28:38;3.40;1.00
2202;DHT22;1107;48.654;9.250;2023-02-01T02:31:26;3.40;1.00
2202;DHT22;1107;48.654;9.250;2023-02-01T02:34:09;3.40;1.00
2202;DHT22;1107;48.654;9.250;2023-02-01T02:36:45;3.40;1.00
2202;DHT22;1107;48.654;9.250;2023-02-01T02:39:21;3.50;1.00
2202;DHT22;1107;48.654;9.250;2023-02-01T02:41:55;3.50;1.00
2202;DHT22;1107;48.654;9.250;2023-02-01T02:44:47;3.50;1.00
2202;DHT22;1107;48.654;9.250;2023-02-01T02:47:34;3.50;1.00
2202;DHT22;1107;48.654;9.250;2023-02-01T02:50:12;3.50;1.00
2202;DHT22;1107;48.654;9.250;2023-02-01T02:53:02;3.60;1.00
2202;DHT22;1107;48.654;9.250;2023-02-01T02:55:50;3.60;1.00
2202;DHT22;1107;48.654;9.250;2023-02-01T02:58:17;3.60;1.00
2202;DHT22;1107;48.654;9.250;2023-02-01T03:01:03;3.60;1.00
2202;DHT22;1107;48.654;9.250;2023-02-01T03:03:48;3.60;1.00
2202;DHT22;1107;48.654;9.250;2023-02-01T03:06:36;3.60;1.00
2202;DHT22;1107;48.654;9.250;2023-02-01T03:09:08;3.60;1.00
2202;DHT22;1107;48.654;9.250;2023-02-01T03:11:45;3.60;1.00
2202;DHT22;1107;48.654;9.250;2023-02-01T03:14:32;3.60;1.00
2202;DHT22;1107;48.654;9.250;2023-02-01T03:17:04;3.60;1.00
2202;DHT22;1107;48.654;9.250;2023-02-01T03:19:38;3.50;1.00
2202;DHT22;1107;48.654;9.250;2023-02-01T03:22:13;3.50;1.00
2202;DHT22;1107;48.654;9.250;2023-02-01T03:24:43;3.50;2.40
2202;DHT22;1107;48.654;9.250;2023-02-01T03:27:13;3.50;8.30
2202;DHT22;1107;48.654;9.250;2023-02-01T03:29:46;3.50;17.70
2202;DHT22;1107;48.654;9.250;2023-02-01T03:32:15;3.50;29.70
2202;DHT22;1107;48.654;9.250;2023-02-01T03:34:42;3.40;47.40
2202;DHT22;1107;48.654;9.250;2023-02-01T03:37:13;3.40;51.60
2202;DHT22;1107;48.654;9.250;2023-02-01T03:39:47;3.40;50.80
2202;DHT22;1107;48.654;9.250;2023-02-01T03:42:18;3.40;51.50
2202;DHT22;1107;48.654;9.250;2023-02-01T03:44:49;3.50;46.70
2202;DHT22;1107;48.654;9.250;2023-02-01T03:47:20;3.40;47.30
2202;DHT22;1107;48.654;9.250;2023-02-01T03:49:49;3.50;46.60
2202;DHT22;1107;48.654;9.250;2023-02-01T03:52:22;3.50;45.70
2202;DHT22;1107;48.654;9.250;2023-02-01T03:54:50;3.40;46.60
2202;DHT22;1107;48.654;9.250;2023-02-01T03:57:21;3.50;48.90
2202;DHT22;1107;48.654;9.250;2023-02-01T03:59:50;3.50;44.90
2202;DHT22;1107;48.654;9.250;2023-02-01T04:02:17;3.40;44.60
2202;DHT22;1107;48.654;9.250;2023-02-01T04:04:44;3.40;46.90
2202;DHT22;1107;48.654;9.250;2023-02-01T04:07:11;3.40;41.70
2202;DHT22;1107;48.654;9.250;2023-02-01T04:09:39;3.40;44.20
2202;DHT22;1107;48.654;9.250;2023-02-01T04:12:06;3.50;46.50
2202;DHT22;1107;48.654;9.250;2023-02-01T04:14:33;3.40;37.40
2202;DHT22;1107;48.654;9.250;2023-02-01T04:17:00;3.50;29.20
2202;DHT22;1107;48.654;9.250;2023-02-01T04:19:27;3.50;23.60
2202;DHT22;1107;48.654;9.250;2023-02-01T04:21:54;3.50;17.20
2202;DHT22;1107;48.654;9.250;2023-02-01T04:24:21;3.50;13.90
2202;DHT22;1107;48.654;9.250;2023-02-01T04:26:49;3.50;11.40
2202;DHT22;1107;48.654;9.250;2023-02-01T04:29:16;3.50;8.50
2202;DHT22;1107;48.654;9.250;2023-02-01T04:31:43;3.50;7.20
2202;DHT22;1107;48.654;9.250;2023-02-01T04:34:11;3.50;4.10
2202;DHT22;1107;48.654;9.250;2023-02-01T04:36:38;3.50;4.00
2202;DHT22;1107;48.654;9.250;2023-02-01T04:39:05;3.50;1.00
2202;DHT22;1107;48.654;9.250;2023-02-01T04:41:32;3.60;1.00
2202;DHT22;1107;48.654;9.250;2023-02-01T04:44:00;3.60;1.00
2202;DHT22;1107;48.654;9.250;2023-02-01T04:46:27;3.60;1.00
2202;DHT22;1107;48.654;9.250;2023-02-01T04:48:54;3.60;1.00
2202;DHT22;1107;48.654;9.250;2023-02-01T04:51:21;3.60;1.00
2202;DHT22;1107;48.654;9.250;2023-02-01T04:53:48;3.60;1.00
2202;DHT22;1107;48.654;9.250;2023-02-01T04:56:15;3.60;1.00
2202;DHT22;1107;48.654;9.250;2023-02-01T04:58:42;3.60;1.00
2202;DHT22;1107;48.654;9.250;2023-02-01T05:01:10;3.60;1.00
2202;DHT22;1107;48.654;9.250;2023-02-01T05:03:37;3.50;1.00
2202;DHT22;1107;48.654;9.250;2023-02-01T05:06:04;3.50;1.00
2202;DHT22;1107;48.654;9.250;2023-02-01T05:08:32;3.60;1.00
2202;DHT22;1107;48.654;9.250;2023-02-01T05:10:59;3.60;1.00
2202;DHT22;1107;48.654;9.250;2023-02-01T05:13:28;3.60;1.00
2202;DHT22;1107;48.654;9.250;2023-02-01T05:16:13;3.60;1.00
2202;DHT22;1107;48.654;9.250;2023-02-01T05:18:40;3.60;1.00
2202;DHT22;1107;48.654;9.250;2023-02-01T05:21:07;3.60;1.00
2202;DHT22;1107;48.654;9.250;2023-02-01T05:23:34;3.50;1.00
2202;DHT22;1107;48.654;9.250;2023-02-01T05:26:21;3.50;1.00
2202;DHT22;1107;48.654;9.250;2023-02-01T05:28:48;3.60;1.00
2202;DHT22;1107;48.654;9.250;2023-02-01T05:31:17;3.60;1.00
2202;DHT22;1107;48.654;9.250;2023-02-01T05:33:44;3.60;1.00
2202;DHT22;1107;48.654;9.250;2023-02-01T05:36:11;3.60;1.00
2202;DHT22;1107;48.654;9.250;2023-02-01T05:38:38;3.60;1.00
2202;DHT22;1107;48.654;9.250;2023-02-01T05:41:05;3.60;1.00
2202;DHT22;1107;48.654;9.250;2023-02-01T05:43:32;3.60;1.00
2202;DHT22;1107;48.654;9.250;2023-02-01T05:45:58;3.60;1.00
2202;DHT22;1107;48.654;9.250;2023-02-01T05:48:27;3.70;1.00
2202;DHT22;1107;48.654;9.250;2023-02-01T05:50:54;3.70;1.00
2202;DHT22;1107;48.654;9.250;2023-02-01T05:53:21;3.70;1.00
2202;DHT22;1107;48.654;9.250;2023-02-01T05:55:48;3.70;1.00
2202;DHT22;1107;48.654;9.250;2023-02-01T05:58:15;3.70;1.00
2202;DHT22;1107;48.654;9.250;2023-02-01T06:00:42;3.70;1.00
2202;DHT22;1107;48.654;9.250;2023-02-01T06:03:09;3.70;1.00
2202;DHT22;1107;48.654;9.250;2023-02-01T06:05:37;3.70;1.00
2202;DHT22;1107;48.654;9.250;2023-02-01T06:08:04;3.70;1.00
2202;DHT22;1107;48.654;9.250;2023-02-01T06:10:33;3.70;1.00
2202;DHT22;1107;48.654;9.250;2023-02-01T06:12:59;3.70;1.00
2202;DHT22;1107;48.654;9.250;2023-02-01T06:15:28;3.70;1.00
2202;DHT22;1107;48.654;9.250;2023-02-01T06:17:56;3.70;1.00
2202;DHT22;1107;48.654;9.250;2023-02-01T06:20:23;3.70;1.00
2202;DHT22;1107;48.654;9.250;2023-02-01T06:22:51;3.70;1.00
2202;DHT22;1107;48.654;9.250;2023-02-01T06:25:19;3.70;1.00
2202;DHT22;1107;48.654;9.250;2023-02-01T06:27:46;3.50;7.50
2202;DHT22;1107;48.654;9.250;2023-02-01T06:30:14;3.40;38.10
2202;DHT22;1107;48.654;9.250;2023-02-01T06:32:41;3.30;49.00
2202;DHT22;1107;48.654;9.250;2023-02-01T06:35:09;3.30;52.80
2202;DHT22;1107;48.654;9.250;2023-02-01T06:37:41;3.30;61.50
2202;DHT22;1107;48.654;9.250;2023-02-01T06:40:11;3.30;59.40
2202;DHT22;1107;48.654;9.250;2023-02-01T06:42:38;3.40;32.20
2202;DHT22;1107;48.654;9.250;2023-02-01T06:45:06;3.40;11.20
2202;DHT22;1107;48.654;9.250;2023-02-01T06:47:33;3.40;8.40
2202;DHT22;1107;48.654;9.250;2023-02-01T06:50:00;3.40;1.00
2202;DHT22;1107;48.654;9.250;2023-02-01T06:52:27;3.40;1.00
2202;DHT22;1107;48.654;9.250;2023-02-01T06:54:54;3.50;1.00
2202;DHT22;1107;48.654;9.250;2023-02-01T06:57:22;3.50;1.00
2202;DHT22;1107;48.654;9.250;2023-02-01T06:59:49;3.50;1.00
2202;DHT22;1107;48.654;9.250;2023-02-01T07:02:16;3.50;1.00
2202;DHT22;1107;48.654;9.250;2023-02-01T07:04:43;3.50;1.00
2202;DHT22;1107;48.654;9.250;2023-02-01T07:07:10;3.50;1.00
2202;DHT22;1107;48.654;9.250;2023-02-01T07:09:37;3.50;1.00
2202;DHT22;1107;48.654;9.250;2023-02-01T07:12:05;3.60;1.00
2202;DHT22;1107;48.654;9.250;2023-02-01T07:14:33;3.50;1.00
2202;DHT22;1107;48.654;9.250;2023-02-01T07:17:00;3.50;1.00
2202;DHT22;1107;48.654;9.250;2023-02-01T07:19:27;3.50;1.00
2202;DHT22;1107;48.654;9.250;2023-02-01T07:21:54;3.60;1.00
2202;DHT22;1107;48.654;9.250;2023-02-01T07:24:21;3.60;1.00
2202;DHT22;1107;48.654;9.250;2023-02-01T07:26:48;3.50;1.00
2202;DHT22;1107;48.654;9.250;2023-02-01T07:29:16;3.60;1.00
2202;DHT22;1107;48.654;9.250;2023-02-01T07:31:45;3.60;1.00
2202;DHT22;1107;48.654;9.250;2023-02-01T07:34:12;3.60;1.00
2202;DHT22;1107;48.654;9.250;2023-02-01T07:36:39;3.60;1.00
2202;DHT22;1107;48.654;9.250;2023-02-01T07:39:07;3.60;1.00
2202;DHT22;1107;48.654;9.250;2023-02-01T07:41:34;3.60;1.00
2202;DHT22;1107;48.654;9.250;2023-02-01T07:44:01;3.60;1.00
2202;DHT22;1107;48.654;9.250;2023-02-01T07:46:28;3.60;1.00
2202;DHT22;1107;48.654;9.250;2023-02-01T07:48:56;3.70;1.00
2202;DHT22;1107;48.654;9.250;2023-02-01T07:51:23;3.70;1.00
2202;DHT22;1107;48.654;9.250;2023-02-01T07:53:50;3.70;1.00
2202;DHT22;1107;48.654;9.250;2023-02-01T07:56:19;3.70;1.00
2202;DHT22;1107;48.654;9.250;2023-02-01T07:58:48;3.70;1.00
2202;DHT22;1107;48.654;9.250;2023-02-01T08:01:16;3.80;1.00
2202;DHT22;1107;48.654;9.250;2023-02-01T08:03:45;3.80;1.00
2202;DHT22;1107;48.654;9.250;2023-02-01T08:06:14;3.80;1.00
2202;DHT22;1107;48.654;9.250;2023-02-01T08:08:41;3.80;1.00
2202;DHT22;1107;48.654;9.250;2023-02-01T08:11:08;3.80;1.00
2202;DHT22;1107;48.654;9.250;2023-02-01T08:13:35;3.90;1.00
2202;DHT22;1107;48.654;9.250;2023-02-01T08:16:03;3.80;1.00
2202;DHT22;1107;48.654;9.250;2023-02-01T08:18:31;3.90;1.00
2202;DHT22;1107;48.654;9.250;2023-02-01T08:21:03;3.90;1.00
2202;DHT22;1107;48.654;9.250;2023-02-01T08:23:32;3.90;1.00
2202;DHT22;1107;48.654;9.250;2023-02-01T08:26:05;3.90;1.00
2202;DHT22;1107;48.654;9.250;2023-02-01T08:28:33;3.90;1.00
2202;DHT22;1107;48.654;9.250;2023-02-01T08:31:04;3.90;1.00
2202;DHT22;1107;48.654;9.250;2023-02-01T08:33:31;4.00;1.00
2202;DHT22;1107;48.654;9.250;2023-02-01T08:36:00;3.90;1.00
2202;DHT22;1107;48.654;9.250;2023-02-01T08:38:27;4.00;1.00
2202;DHT22;1107;48.654;9.250;2023-02-01T08:40:56;4.00;1.00
2202;DHT22;1107;48.654;9.250;2023-02-01T08:43:23;4.00;1.00
2202;DHT22;1107;48.654;9.250;2023-02-01T08:45:50;4.10;1.00
2202;DHT22;1107;48.654;9.250;2023-02-01T08:48:20;4.10;1.00
2202;DHT22;1107;48.654;9.250;2023-02-01T08:50:47;4.10;1.00
2202;DHT22;1107;48.654;9.250;2023-02-01T08:53:14;4.20;1.00
2202;DHT22;1107;48.654;9.250;2023-02-01T08:55:41;4.20;1.00
2202;DHT22;1107;48.654;9.250;2023-02-01T08:58:09;4.20;1.00
2202;DHT22;1107;48.654;9.250;2023-02-01T09:00:36;4.20;1.00
2202;DHT22;1107;48.654;9.250;2023-02-01T09:03:03;4.20;1.00
2202;DHT22;1107;48.654;9.250;2023-02-01T09:05:30;4.20;1.00
2202;DHT22;1107;48.654;9.250;2023-02-01T09:07:57;4.20;1.00
2202;DHT22;1107;48.654;9.250;2023-02-01T09:10:24;4.20;1.00
2202;DHT22;1107;48.654;9.250;2023-02-01T09:12:51;4.30;1.00
2202;DHT22;1107;48.654;9.250;2023-02-01T09:15:20;4.30;1.00
2202;DHT22;1107;48.654;9.250;2023-02-01T09:17:47;4.20;1.00
2202;DHT22;1107;48.654;9.250;2023-02-01T09:20:14;4.30;1.00
2202;DHT22;1107;48.654;9.250;2023-02-01T09:22:41;4.30;1.00
2202;DHT22;1107;48.654;9.250;2023-02-01T09:25:08;4.20;1.00
2202;DHT22;1107;48.654;9.250;2023-02-01T09:27:35;4.20;1.00
2202;DHT22;1107;48.654;9.250;2023-02-01T09:30:03;4.20;1.00
2202;DHT22;1107;48.654;9.250;2023-02-01T09:32:32;4.30;1.00
2202;DHT22;1107;48.654;9.250;2023-02-01T09:34:59;4.30;1.00
2202;DHT22;1107;48.654;9.250;2023-02-01T09:37:27;4.30;1.00
2202;DHT22;1107;48.654;9.250;2023-02-01T09:39:54;4.30;1.00
2202;DHT22;1107;48.654;9.250;2023-02-01T09:42:34;4.30;1.00
2202;DHT22;1107;48.654;9.250;2023-02-01T09:45:13;4.30;1.00
2202;DHT22;1107;48.654;9.250;2023-02-01T09:47:47;4.40;99.90
2202;DHT22;1107;48.654;9.250;2023-02-01T09:50:19;4.40;99.90
2202;DHT22;1107;48.654;9.250;2023-02-01T09:52:54;4.40;99.90
2202;DHT22;1107;48.654;9.250;2023-02-01T09:55:32;4.40;99.90
2202;DHT22;1107;48.654;9.250;2023-02-01T09:58:05;4.40;99.90
2202;DHT22;1107;48.654;9.250;2023-02-01T10:00:35;4.40;1.00
2202;DHT22;1107;48.654;9.250;2023-02-01T10:03:05;4.50;1.00
2202;DHT22;1107;48.654;9.250;2023-02-01T10:08:32;4.60;1.00
2202;DHT22;1107;48.654;9.250;2023-02-01T10:11:07;4.70;99.90
2202;DHT22;1107;48.654;9.250;2023-02-01T10:13:48;4.80;1.00
2202;DHT22;1107;48.654;9.250;2023-02-01T10:16:27;4.80;1.00
2202;DHT22;1107;48.654;9.250;2023-02-01T10:19:07;4.80;99.90
2202;DHT22;1107;48.654;9.250;2023-02-01T10:21:46;4.80;1.00
2202;DHT22;1107;48.654;9.250;2023-02-01T10:24:25;4.70;1.00
2202;DHT22;1107;48.654;9.250;2023-02-01T10:27:01;4.70;99.90
2202;DHT22;1107;48.654;9.250;2023-02-01T10:29:36;4.80;99.90
2202;DHT22;1107;48.654;9.250;2023-02-01T10:32:12;4.80;1.00
2202;DHT22;1107;48.654;9.250;2023-02-01T10:34:42;4.90;1.00
2202;DHT22;1107;48.654;9.250;2023-02-01T10:37:18;5.10;99.90
2202;DHT22;1107;48.654;9.250;2023-02-01T10:39:47;5.00;1.00
2202;DHT22;1107;48.654;9.250;2023-02-01T10:42:15;5.00;99.90
2202;DHT22;1107;48.654;9.250;2023-02-01T10:44:44;5.00;99.90
2202;DHT22;1107;48.654;9.250;2023-02-01T10:47:14;5.00;1.00
2202;DHT22;1107;48.654;9.250;2023-02-01T10:49:47;5.00;99.90
2202;DHT22;1107;48.654;9.250;2023-02-01T10:52:18;5.00;1.00
2202;DHT22;1107;48.654;9.250;2023-02-01T10:54:46;5.00;1.00
2202;DHT22;1107;48.654;9.250;2023-02-01T10:57:21;5.00;1.00
2202;DHT22;1107;48.654;9.250;2023-02-01T10:59:49;5.00;1.00
2202;DHT22;1107;48.654;9.250;2023-02-01T11:02:20;5.00;1.00
2202;DHT22;1107;48.654;9.250;2023-02-01T11:04:59;5.10;99.90
2202;DHT22;1107;48.654;9.250;2023-02-01T11:07:28;5.10;7.00
2202;DHT22;1107;48.654;9.250;2023-02-01T11:09:55;5.00;1.00
2202;DHT22;1107;48.654;9.250;2023-02-01T11:12:30;5.10;1.00
2202;DHT22;1107;48.654;9.250;2023-02-01T11:15:02;5.00;1.00
2202;DHT22;1107;48.654;9.250;2023-02-01T11:17:34;5.10;99.90
2202;DHT22;1107;48.654;9.250;2023-02-01T11:20:14;5.10;99.90
2202;DHT22;1107;48.654;9.250;2023-02-01T11:22:46;5.30;99.90
2202;DHT22;1107;48.654;9.250;2023-02-01T11:25:16;5.40;1.00
2202;DHT22;1107;48.654;9.250;2023-02-01T11:27:44;5.70;99.90
2202;DHT22;1107;48.654;9.250;2023-02-01T11:30:16;5.70;94.30
2202;DHT22;1107;48.654;9.250;2023-02-01T11:32:45;5.80;99.90
2202;DHT22;1107;48.654;9.250;2023-02-01T11:35:17;6.10;1.00
2202;DHT22;1107;48.654;9.250;2023-02-01T11:37:50;5.90;1.00
2202;DHT22;1107;48.654;9.250;2023-02-01T11:40:28;5.90;1.00
2202;DHT22;1107;48.654;9.250;2023-02-01T11:42:57;5.80;1.00
2202;DHT22;1107;48.654;9.250;2023-02-01T11:45:28;5.80;1.00
2202;DHT22;1107;48.654;9.250;2023-02-01T11:47:57;5.80;1.00
2202;DHT22;1107;48.654;9.250;2023-02-01T11:50:35;5.80;1.00
2202;DHT22;1107;48.654;9.250;2023-02-01T11:53:23;5.80;1.00
2202;DHT22;1107;48.654;9.250;2023-02-01T11:56:08;5.70;1.00
2202;DHT22;1107;48.654;9.250;2023-02-01T11:59:02;5.70;1.00
2202;DHT22;1107;48.654;9.250;2023-02-01T12:01:51;5.70;1.00
2202;DHT22;1107;48.654;9.250;2023-02-01T12:04:57;5.70;1.00
2202;DHT22;1107;48.654;9.250;2023-02-01T12:07:43;5.60;1.00
2202;DHT22;1107;48.654;9.250;2023-02-01T12:10:21;5.60;1.00
2202;DHT22;1107;48.654;9.250;2023-02-01T12:12:59;5.60;16.80
2202;DHT22;1107;48.654;9.250;2023-02-01T12:15:40;5.60;1.00
2202;DHT22;1107;48.654;9.250;2023-02-01T12:18:41;5.60;1.00
2202;DHT22;1107;48.654;9.250;2023-02-01T12:21:35;5.50;1.00
2202;DHT22;1107;48.654;9.250;2023-02-01T12:27:36;5.50;1.00
2202;DHT22;1107;48.654;9.250;2023-02-01T12:30:17;5.40;1.00
2202;DHT22;1107;48.654;9.250;2023-02-01T12:32:58;5.40;1.00
2202;DHT22;1107;48.654;9.250;2023-02-01T12:35:44;5.30;1.00
2202;DHT22;1107;48.654;9.250;2023-02-01T12:38:29;5.40;99.90
2202;DHT22;1107;48.654;9.250;2023-02-01T12:41:08;5.40;54.50
2202;DHT22;1107;48.654;9.250;2023-02-01T12:43:43;5.40;1.00
2202;DHT22;1107;48.654;9.250;2023-02-01T12:46:14;5.40;1.00
2202;DHT22;1107;48.654;9.250;2023-02-01T12:48:53;5.40;22.50
2202;DHT22;1107;48.654;9.250;2023-02-01T12:51:24;5.50;1.00
2202;DHT22;1107;48.654;9.250;2023-02-01T12:53:57;5.40;1.00
2202;DHT22;1107;48.654;9.250;2023-02-01T12:56:32;5.40;1.00
2202;DHT22;1107;48.654;9.250;2023-02-01T12:59:05;5.50;1.00
2202;DHT22;1107;48.654;9.250;2023-02-01T13:01:37;5.40;1.00
2202;DHT22;1107;48.654;9.250;2023-02-01T13:04:10;5.40;1.00
2202;DHT22;1107;48.654;9.250;2023-02-01T13:06:44;5.40;1.00
2202;DHT22;1107;48.654;9.250;2023-02-01T13:09:19;5.40;1.00
2202;DHT22;1107;48.654;9.250;2023-02-01T13:11:49;5.50;1.00
2202;DHT22;1107;48.654;9.250;2023-02-01T13:14:27;5.40;1.00
2202;DHT22;1107;48.654;9.250;2023-02-01T13:17:00;5.40;1.00
2202;DHT22;1107;48.654;9.250;2023-02-01T13:19:34;5.40;1.00
2202;DHT22;1107;48.654;9.250;2023-02-01T13:22:05;5.30;1.00
2202;DHT22;1107;48.654;9.250;2023-02-01T13:24:37;5.30;1.00
2202;DHT22;1107;48.654;9.250;2023-02-01T13:27:08;5.30;1.00
2202;DHT22;1107;48.654;9.250;2023-02-01T13:29:44;5.40;1.00
2202;DHT22;1107;48.654;9.250;2023-02-01T13:32:23;5.40;1.00
2202;DHT22;1107;48.654;9.250;2023-02-01T13:38:06;5.30;1.00
2202;DHT22;1107;48.654;9.250;2023-02-01T13:40:39;5.20;1.00
2202;DHT22;1107;48.654;9.250;2023-02-01T13:43:12;5.30;1.00
2202;DHT22;1107;48.654;9.250;2023-02-01T13:45:46;5.40;1.00
2202;DHT22;1107;48.654;9.250;2023-02-01T13:48:21;5.40;1.00
2202;DHT22;1107;48.654;9.250;2023-02-01T13:50:52;5.40;1.00
2202;DHT22;1107;48.654;9.250;2023-02-01T13:53:25;5.40;1.00
2202;DHT22;1107;48.654;9.250;2023-02-01T13:55:59;5.40;1.00
2202;DHT22;1107;48.654;9.250;2023-02-01T13:58:32;5.30;1.00
2202;DHT22;1107;48.654;9.250;2023-02-01T14:07:22;5.20;1.00
2202;DHT22;1107;48.654;9.250;2023-02-01T14:09:49;5.30;1.00
2202;DHT22;1107;48.654;9.250;2023-02-01T14:12:45;5.30;1.00
2202;DHT22;1107;48.654;9.250;2023-02-01T14:15:35;5.30;1.00
2202;DHT22;1107;48.654;9.250;2023-02-01T14:21:16;5.20;1.00
2202;DHT22;1107;48.654;9.250;2023-02-01T14:23:47;5.20;1.00
2202;DHT22;1107;48.654;9.250;2023-02-01T14:26:23;5.20;1.00
2202;DHT22;1107;48.654;9.250;2023-02-01T14:28:57;5.10;1.00
2202;DHT22;1107;48.654;9.250;2023-02-01T14:31:42;5.20;1.00
2202;DHT22;1107;48.654;9.250;2023-02-01T14:34:19;5.20;1.00
2202;DHT22;1107;48.654;9.250;2023-02-01T14:36:51;5.20;1.00
2202;DHT22;1107;48.654;9.250;2023-02-01T14:39:28;5.20;1.00
2202;DHT22;1107;48.654;9.250;2023-02-01T14:41:58;5.20;1.00
2202;DHT22;1107;48.654;9.250;2023-02-01T14:44:32;5.20;1.00
2202;DHT22;1107;48.654;9.250;2023-02-01T14:50:15;5.20;1.00
2202;DHT22;1107;48.654;9.250;2023-02-01T14:52:46;5.10;59.80
2202;DHT22;1107;48.654;9.250;2023-02-01T14:55:21;5.10;99.90
2202;DHT22;1107;48.654;9.250;2023-02-01T14:57:53;5.10;99.90
2202;DHT22;1107;48.654;9.250;2023-02-01T15:00:24;5.10;99.90
2202;DHT22;1107;48.654;9.250;2023-02-01T15:02:53;5.10;99.90
2202;DHT22;1107;48.654;9.250;2023-02-01T15:05:31;5.10;99.90
2202;DHT22;1107;48.654;9.250;2023-02-01T15:08:07;5.10;99.90
2202;DHT22;1107;48.654;9.250;2023-02-01T15:10:43;5.10;1.00
2202;DHT22;1107;48.654;9.250;2023-02-01T15:13:22;5.10;1.00
2202;DHT22;1107;48.654;9.250;2023-02-01T15:16:03;5.10;1.00
2202;DHT22;1107;48.654;9.250;2023-02-01T15:18:32;5.00;1.00
2202;DHT22;1107;48.654;9.250;2023-02-01T15:21:00;5.00;1.00
2202;DHT22;1107;48.654;9.250;2023-02-01T15:23:28;5.10;1.00
2202;DHT22;1107;48.654;9.250;2023-02-01T15:25:57;5.10;1.00
2202;DHT22;1107;48.654;9.250;2023-02-01T15:28:25;5.00;1.00
2202;DHT22;1107;48.654;9.250;2023-02-01T15:30:56;5.10;1.00
2202;DHT22;1107;48.654;9.250;2023-02-01T15:33:23;5.10;1.00
2202;DHT22;1107;48.654;9.250;2023-02-01T15:35:51;5.10;1.00
2202;DHT22;1107;48.654;9.250;2023-02-01T15:38:34;5.10;1.00
2202;DHT22;1107;48.654;9.250;2023-02-01T15:41:08;5.10;1.00
2202;DHT22;1107;48.654;9.250;2023-02-01T15:43:38;5.10;99.90
2202;DHT22;1107;48.654;9.250;2023-02-01T15:46:12;5.10;1.00
2202;DHT22;1107;48.654;9.250;2023-02-01T15:48:45;5.10;1.00
2202;DHT22;1107;48.654;9.250;2023-02-01T15:51:15;5.20;1.00
2202;DHT22;1107;48.654;9.250;2023-02-01T15:53:53;5.10;1.00
2202;DHT22;1107;48.654;9.250;2023-02-01T15:56:24;5.10;1.00
2202;DHT22;1107;48.654;9.250;2023-02-01T15:58:55;5.10;99.90
2202;DHT22;1107;48.654;9.250;2023-02-01T16:01:24;5.10;99.90
2202;DHT22;1107;48.654;9.250;2023-02-01T16:04:02;4.90;1.00
2202;DHT22;1107;48.654;9.250;2023-02-01T16:06:30;5.10;1.00
2202;DHT22;1107;48.654;9.250;2023-02-01T16:09:02;5.10;1.00
2202;DHT22;1107;48.654;9.250;2023-02-01T16:11:32;5.00;1.00
2202;DHT22;1107;48.654;9.250;2023-02-01T16:14:00;5.00;1.00
2202;DHT22;1107;48.654;9.250;2023-02-01T16:16:28;5.00;1.00
2202;DHT22;1107;48.654;9.250;2023-02-01T16:18:55;5.00;1.00
2202;DHT22;1107;48.654;9.250;2023-02-01T16:21:23;5.00;1.00
2202;DHT22;1107;48.654;9.250;2023-02-01T16:23:50;5.00;1.00
2202;DHT22;1107;48.654;9.250;2023-02-01T16:26:18;5.00;1.00
2202;DHT22;1107;48.654;9.250;2023-02-01T16:28:47;5.10;1.00
2202;DHT22;1107;48.654;9.250;2023-02-01T16:31:16;5.10;1.00
2202;DHT22;1107;48.654;9.250;2023-02-01T16:33:50;5.10;1.00
2202;DHT22;1107;48.654;9.250;2023-02-01T16:36:18;5.10;1.00
2202;DHT22;1107;48.654;9.250;2023-02-01T16:38:45;5.10;1.00
2202;DHT22;1107;48.654;9.250;2023-02-01T16:41:14;5.10;99.90
2202;DHT22;1107;48.654;9.250;2023-02-01T16:43:41;5.10;99.90
2202;DHT22;1107;48.654;9.250;2023-02-01T16:46:13;5.10;99.90
2202;DHT22;1107;48.654;9.250;2023-02-01T16:48:42;5.00;99.90
2202;DHT22;1107;48.654;9.250;2023-02-01T16:51:13;5.00;99.90
2202;DHT22;1107;48.654;9.250;2023-02-01T16:53:41;5.00;99.90
2202;DHT22;1107;48.654;9.250;2023-02-01T16:56:13;5.00;99.90
2202;DHT22;1107;48.654;9.250;2023-02-01T16:58:41;5.00;99.90
2202;DHT22;1107;48.654;9.250;2023-02-01T17:01:11;5.00;99.90
2202;DHT22;1107;48.654;9.250;2023-02-01T17:03:38;5.00;99.90
2202;DHT22;1107;48.654;9.250;2023-02-01T17:06:07;5.00;99.90
2202;DHT22;1107;48.654;9.250;2023-02-01T17:08:37;5.00;99.90
2202;DHT22;1107;48.654;9.250;2023-02-01T17:11:05;5.00;99.90
2202;DHT22;1107;48.654;9.250;2023-02-01T17:13:33;5.00;99.90
2202;DHT22;1107;48.654;9.250;2023-02-01T17:16:02;5.00;99.90
2202;DHT22;1107;48.654;9.250;2023-02-01T17:18:34;4.90;99.90
2202;DHT22;1107;48.654;9.250;2023-02-01T17:21:03;4.90;99.90